LGRX/GPA METAR and TAF weather

Enter ICAO airport designator
Station Type Date Time Source
LGRX METAR 2019/06/18 12:50 UTC NOAA

LGRX 181250Z 28006KT 9999 FEW020 31/19 Q1012 RMK FEW100 BLU


Station Type Date Time Source
LGRX Decoded METAR 2019/06/18 12:50 UTC NOAA

Araxos Airport , Greece (LGRX) 38-09N 021-25E 12M
Jun 18, 2019 - 08:50 AM EDT / 2019.06.18 1250 UTC
Wind: from the W (280 degrees) at 7 MPH (6 KT):0
Visibility: greater than 7 mile(s):0
Sky conditions: mostly clear
Temperature: 87 F (31 C)
Dew Point: 66 F (19 C)
Relative Humidity: 48%
Pressure (altimeter): 29.88 in. Hg (1012 hPa)
ob: LGRX 181250Z 28006KT 9999 FEW020 31/19 Q1012 RMK FEW100 BLU
cycle: 13

Station Type Date Time Source
LGRX TAF 2017/09/23 18:36 UTC NOAA

TAF TAF LGRX 231700Z 2318/2406 33010KT 9999 FEW025
BECMG 2322/2324 VRB03KT

Example: see airport list